createdAt,value
2023-04-18T00:01:27.459Z,8.70
2023-04-18T00:03:54.055Z,8.70
2023-04-18T00:06:22.110Z,8.70
2023-04-18T00:08:48.595Z,8.80
2023-04-18T00:11:15.031Z,8.80
2023-04-18T00:13:41.606Z,8.76
2023-04-18T00:16:08.699Z,8.70
2023-04-18T00:18:36.946Z,8.68
2023-04-18T00:21:04.465Z,8.70
2023-04-18T00:23:31.308Z,8.70
2023-04-18T00:25:57.692Z,8.70
2023-04-18T00:28:24.254Z,8.68
2023-04-18T00:30:50.921Z,8.70
2023-04-18T00:33:17.917Z,8.60
2023-04-18T00:35:44.753Z,8.60
2023-04-18T00:38:11.228Z,8.60
2023-04-18T00:40:38.532Z,8.60
2023-04-18T00:43:07.905Z,8.68
2023-04-18T00:45:34.778Z,8.60
2023-04-18T00:48:02.077Z,8.60
2023-04-18T00:50:28.807Z,8.60
2023-04-18T00:52:56.161Z,8.70
2023-04-18T00:55:24.109Z,8.60
2023-04-18T00:57:51.813Z,8.58
2023-04-18T01:00:18.446Z,8.50
2023-04-18T01:02:45.040Z,8.60
2023-04-18T01:05:11.981Z,8.50
2023-04-18T01:07:41.552Z,8.50
2023-04-18T01:10:10.475Z,8.40
2023-04-18T01:12:37.645Z,8.40
2023-04-18T01:15:05.688Z,8.40
2023-04-18T01:17:34.545Z,8.44
2023-04-18T01:20:02.042Z,8.46
2023-04-18T01:22:31.810Z,8.40
2023-04-18T01:24:58.596Z,8.40
2023-04-18T01:27:24.999Z,8.40
2023-04-18T01:29:51.554Z,8.40
2023-04-18T01:32:20.153Z,8.40
2023-04-18T01:34:46.796Z,8.40
2023-04-18T01:37:13.331Z,8.44
2023-04-18T01:39:39.828Z,8.46
2023-04-18T01:42:06.300Z,8.50
2023-04-18T01:44:32.689Z,8.60
2023-04-18T01:46:59.236Z,8.50
2023-04-18T01:49:25.831Z,8.50
2023-04-18T01:51:52.204Z,8.52
2023-04-18T01:54:18.876Z,8.60
2023-04-18T01:56:45.329Z,8.60
2023-04-18T01:59:11.750Z,8.60
2023-04-18T02:01:38.191Z,8.50
2023-04-18T02:04:04.582Z,8.50
2023-04-18T02:06:31.270Z,8.52
2023-04-18T02:08:57.703Z,8.60
2023-04-18T02:11:27.637Z,8.60
2023-04-18T02:13:54.065Z,8.60
2023-04-18T02:16:20.662Z,8.60
2023-04-18T02:18:47.263Z,8.70
2023-04-18T02:21:13.653Z,8.70
2023-04-18T02:23:40.191Z,8.70
2023-04-18T02:26:06.647Z,8.70
2023-04-18T02:28:33.135Z,8.70
2023-04-18T02:31:00.459Z,8.64
2023-04-18T02:33:26.943Z,8.60
2023-04-18T02:35:53.368Z,8.60
2023-04-18T02:38:19.817Z,8.60
2023-04-18T02:40:46.309Z,8.70
2023-04-18T02:43:12.734Z,8.60
2023-04-18T02:45:39.438Z,8.60
2023-04-18T02:48:06.046Z,8.56
2023-04-18T02:50:32.614Z,8.60
2023-04-18T02:52:58.986Z,8.58
2023-04-18T02:55:26.892Z,8.50
2023-04-18T02:57:53.384Z,8.50
2023-04-18T03:00:19.993Z,8.50
2023-04-18T03:02:46.542Z,8.44
2023-04-18T03:05:13.477Z,8.40
2023-04-18T03:07:40.130Z,8.40
2023-04-18T03:10:07.098Z,8.42
2023-04-18T03:12:33.623Z,8.40
2023-04-18T03:15:00.070Z,8.50
2023-04-18T03:17:26.580Z,8.50
2023-04-18T03:19:53.065Z,8.50
2023-04-18T03:22:20.109Z,8.50
2023-04-18T03:24:46.534Z,8.46
2023-04-18T03:27:13.408Z,8.40
2023-04-18T03:29:39.903Z,8.40
2023-04-18T03:32:06.409Z,8.50
2023-04-18T03:34:32.958Z,8.40
2023-04-18T03:36:59.509Z,8.40
2023-04-18T03:39:25.946Z,8.40
2023-04-18T03:41:52.555Z,8.50
2023-04-18T03:44:19.157Z,8.40
2023-04-18T03:46:45.792Z,8.40
2023-04-18T03:49:12.421Z,8.46
2023-04-18T03:51:48.000Z,8.32
2023-04-18T03:54:16.344Z,8.36
2023-04-18T03:56:43.862Z,8.40
2023-04-18T03:59:11.314Z,8.40
2023-04-18T04:01:38.213Z,8.40
2023-04-18T04:04:05.359Z,8.50
2023-04-18T04:06:32.174Z,8.50
2023-04-18T04:08:58.615Z,8.50
2023-04-18T04:11:25.069Z,8.50
2023-04-18T04:13:51.624Z,8.50
2023-04-18T04:16:18.236Z,8.50
2023-04-18T04:18:44.838Z,8.60
2023-04-18T04:21:11.321Z,8.60
2023-04-18T04:23:37.981Z,8.60
2023-04-18T04:26:04.671Z,8.60
2023-04-18T04:28:32.002Z,8.70
2023-04-18T04:30:59.295Z,8.70
2023-04-18T04:33:28.404Z,8.70
2023-04-18T04:35:56.333Z,8.70
2023-04-18T04:38:25.280Z,8.80
2023-04-18T04:40:52.824Z,8.80
2023-04-18T04:43:20.673Z,8.80
2023-04-18T04:45:52.623Z,8.80
2023-04-18T04:48:20.322Z,8.80
2023-04-18T04:50:56.468Z,8.80
2023-04-18T04:53:25.611Z,8.70
2023-04-18T04:55:52.406Z,8.70
2023-04-18T04:58:20.040Z,8.70
2023-04-18T05:00:46.592Z,8.70
2023-04-18T05:03:13.069Z,8.80
2023-04-18T05:05:39.704Z,8.80
2023-04-18T05:08:06.489Z,8.80
2023-04-18T05:10:33.198Z,8.80
2023-04-18T05:12:59.616Z,8.80
2023-04-18T05:15:26.010Z,8.80
2023-04-18T05:17:52.496Z,8.80
2023-04-18T05:20:18.908Z,8.84
2023-04-18T05:22:45.458Z,8.80
2023-04-18T05:25:12.459Z,8.80
2023-04-18T05:27:39.434Z,8.80
2023-04-18T05:30:10.754Z,8.90
2023-04-18T05:32:38.985Z,8.92
2023-04-18T05:35:07.390Z,9.00
2023-04-18T05:37:34.448Z,9.00
2023-04-18T05:40:01.286Z,9.10
2023-04-18T05:42:27.745Z,9.10
2023-04-18T05:44:54.197Z,9.06
2023-04-18T05:47:21.098Z,9.00
2023-04-18T05:49:47.665Z,9.00
2023-04-18T05:52:14.169Z,9.00
2023-04-18T05:54:41.170Z,9.00
2023-04-18T05:57:07.676Z,9.00
2023-04-18T05:59:34.285Z,9.00
2023-04-18T06:02:00.812Z,9.06
2023-04-18T06:04:27.521Z,9.10
2023-04-18T06:06:54.374Z,9.10
2023-04-18T06:09:21.008Z,9.10
2023-04-18T06:11:47.458Z,9.12
2023-04-18T06:14:14.027Z,9.20
2023-04-18T06:16:40.932Z,9.22
2023-04-18T06:19:07.497Z,9.30
2023-04-18T06:21:33.868Z,9.30
2023-04-18T06:24:01.557Z,9.30
2023-04-18T06:26:28.256Z,9.40
2023-04-18T06:28:54.691Z,9.40
2023-04-18T06:31:21.335Z,9.42
2023-04-18T06:33:47.808Z,9.42
2023-04-18T06:36:14.350Z,9.40
2023-04-18T06:38:40.803Z,9.40
2023-04-18T06:41:07.224Z,9.40
2023-04-18T06:43:35.769Z,9.50
2023-04-18T06:46:06.054Z,9.52
2023-04-18T06:48:32.888Z,9.60
2023-04-18T06:50:59.308Z,9.64
2023-04-18T06:53:25.942Z,9.70
2023-04-18T06:55:52.496Z,9.70
2023-04-18T06:58:18.944Z,9.70
2023-04-18T07:00:48.806Z,9.80
2023-04-18T07:03:15.460Z,9.80
2023-04-18T07:05:42.087Z,9.82
2023-04-18T07:08:08.653Z,9.90
2023-04-18T07:10:35.169Z,10.00
2023-04-18T07:13:01.753Z,9.96
2023-04-18T07:15:28.520Z,10.00
2023-04-18T07:17:55.151Z,10.00
2023-04-18T07:20:21.742Z,10.00
2023-04-18T07:22:48.726Z,10.00
2023-04-18T07:25:15.208Z,10.00
2023-04-18T07:27:41.707Z,10.10
2023-04-18T07:30:09.222Z,10.10
2023-04-18T07:32:35.742Z,10.02
2023-04-18T07:35:03.461Z,10.02
2023-04-18T07:37:29.921Z,10.16
2023-04-18T07:39:56.452Z,10.30
2023-04-18T07:42:22.888Z,10.40
2023-04-18T07:44:49.683Z,10.48
2023-04-18T07:47:16.362Z,10.60
2023-04-18T07:49:43.014Z,10.70
2023-04-18T07:52:09.506Z,10.80
2023-04-18T07:54:35.959Z,10.90
2023-04-18T07:57:02.509Z,10.94
2023-04-18T07:59:29.584Z,11.16
2023-04-18T08:01:56.101Z,11.30
2023-04-18T08:04:23.243Z,11.50
2023-04-18T08:06:49.822Z,11.60
2023-04-18T08:09:16.472Z,11.70
2023-04-18T08:11:43.094Z,11.80
2023-04-18T08:14:09.598Z,11.80
2023-04-18T08:16:37.469Z,12.00
2023-04-18T08:21:44.757Z,12.00
2023-04-18T08:24:11.152Z,12.10
2023-04-18T08:26:37.579Z,12.30
2023-04-18T08:29:04.115Z,12.40
2023-04-18T08:31:31.681Z,12.50
2023-04-18T08:33:58.232Z,12.60
2023-04-18T08:36:25.064Z,12.60
2023-04-18T08:38:51.637Z,12.60
2023-04-18T08:41:24.601Z,12.60
2023-04-18T08:43:51.220Z,12.60
2023-04-18T08:46:18.970Z,12.70
2023-04-18T08:48:50.081Z,12.80
2023-04-18T08:51:16.482Z,12.90
2023-04-18T08:53:45.078Z,13.00
2023-04-18T08:56:14.748Z,13.10
2023-04-18T08:58:41.295Z,13.20
2023-04-18T09:01:07.859Z,13.30
2023-04-18T09:03:42.618Z,13.40
2023-04-18T09:06:18.878Z,13.50
2023-04-18T09:08:58.674Z,13.60
2023-04-18T09:11:28.726Z,13.70
2023-04-18T09:13:59.012Z,13.70
2023-04-18T09:16:28.105Z,13.70
2023-04-18T09:19:18.155Z,13.70
2023-04-18T09:21:48.931Z,13.70
2023-04-18T09:24:29.009Z,13.80
2023-04-18T09:26:58.552Z,13.90
2023-04-18T09:29:57.323Z,14.00
2023-04-18T09:32:28.915Z,13.90
2023-04-18T09:35:04.569Z,14.00
2023-04-18T09:37:31.596Z,14.02
2023-04-18T09:39:58.011Z,14.10
2023-04-18T09:42:28.684Z,14.10
2023-04-18T09:45:07.038Z,14.10
2023-04-18T09:47:36.537Z,14.00
2023-04-18T09:50:08.118Z,14.00
2023-04-18T09:52:38.152Z,13.90
2023-04-18T09:55:08.745Z,13.90
2023-04-18T09:57:40.641Z,13.90
2023-04-18T10:00:14.182Z,13.70
2023-04-18T10:02:50.429Z,13.68
2023-04-18T10:05:21.095Z,13.60
2023-04-18T10:07:50.022Z,13.60
2023-04-18T10:10:17.976Z,13.74
2023-04-18T10:12:48.091Z,13.80
2023-04-18T10:15:16.752Z,13.80
2023-04-18T10:18:13.995Z,13.90
2023-04-18T10:20:42.537Z,13.92
2023-04-18T10:23:34.810Z,14.00
2023-04-18T10:26:03.491Z,14.12
2023-04-18T10:28:54.685Z,14.20
2023-04-18T10:31:24.209Z,14.30
2023-04-18T10:36:28.442Z,14.30
2023-04-18T10:39:04.299Z,14.30
2023-04-18T10:41:33.328Z,14.36
2023-04-18T10:44:09.527Z,14.34
2023-04-18T10:46:43.992Z,14.30
2023-04-18T10:49:25.207Z,14.30
2023-04-18T10:51:58.585Z,14.20
2023-04-18T10:54:47.908Z,14.20
2023-04-18T10:57:15.239Z,14.10
2023-04-18T10:59:51.547Z,14.08
2023-04-18T11:02:23.433Z,14.10
2023-04-18T11:04:59.421Z,14.10
2023-04-18T11:07:48.636Z,14.14
2023-04-18T11:10:25.499Z,14.20
2023-04-18T11:12:53.411Z,14.20
2023-04-18T11:15:25.629Z,14.30
2023-04-18T11:18:05.132Z,14.30
2023-04-18T11:20:51.958Z,14.30
2023-04-18T11:23:25.516Z,14.34
2023-04-18T11:25:56.390Z,14.48
2023-04-18T11:28:24.982Z,14.60
2023-04-18T11:30:51.447Z,14.70
2023-04-18T11:33:18.064Z,14.82
2023-04-18T11:35:46.430Z,15.00
2023-04-18T11:38:15.309Z,15.14
2023-04-18T11:40:49.134Z,15.30
2023-04-18T11:43:21.948Z,15.50
2023-04-18T11:45:57.650Z,15.70
2023-04-18T11:48:34.812Z,15.80
2023-04-18T11:51:01.293Z,16.00
2023-04-18T11:53:36.302Z,16.10
2023-04-18T11:56:04.686Z,16.20
2023-04-18T11:58:33.210Z,16.30
2023-04-18T12:01:25.094Z,16.40
2023-04-18T12:04:08.153Z,16.30
2023-04-18T12:06:53.338Z,16.48
2023-04-18T12:09:24.535Z,16.58
2023-04-18T12:12:02.709Z,16.70
2023-04-18T12:14:30.816Z,16.70
2023-04-18T12:16:57.272Z,16.60
2023-04-18T12:19:28.150Z,16.50
2023-04-18T12:22:06.479Z,16.60
2023-04-18T12:24:34.032Z,16.70
2023-04-18T12:27:00.563Z,16.76
2023-04-18T12:29:28.928Z,16.86
2023-04-18T12:31:55.598Z,16.92
2023-04-18T12:34:22.057Z,17.00
2023-04-18T12:36:48.572Z,17.10
2023-04-18T12:39:15.628Z,17.10
2023-04-18T12:41:42.080Z,17.10
2023-04-18T12:44:09.252Z,17.10
2023-04-18T12:46:35.904Z,17.20
2023-04-18T12:49:02.396Z,17.20
2023-04-18T12:51:29.107Z,17.30
2023-04-18T12:53:56.451Z,17.30
2023-04-18T12:56:22.993Z,17.30
2023-04-18T12:58:49.481Z,17.30
2023-04-18T13:01:17.008Z,17.40
2023-04-18T13:03:43.643Z,17.50
2023-04-18T13:06:10.698Z,17.40
2023-04-18T13:08:38.318Z,17.14
2023-04-18T13:11:04.822Z,16.80
2023-04-18T13:13:32.196Z,16.50
2023-04-18T13:15:59.370Z,16.24
2023-04-18T13:18:25.993Z,16.00
2023-04-18T13:20:55.214Z,15.90
2023-04-18T13:23:21.604Z,15.80
2023-04-18T13:25:47.987Z,15.76
2023-04-18T13:28:14.509Z,15.80
2023-04-18T13:30:40.916Z,15.90
2023-04-18T13:33:07.462Z,15.96
2023-04-18T13:35:34.335Z,15.92
2023-04-18T13:38:00.770Z,16.08
2023-04-18T13:40:27.287Z,16.20
2023-04-18T13:42:53.756Z,16.40
2023-04-18T13:45:20.657Z,16.50
2023-04-18T13:47:47.375Z,16.70
2023-04-18T13:50:14.144Z,16.90
2023-04-18T13:52:40.590Z,17.10
2023-04-18T13:55:08.150Z,17.20
2023-04-18T13:57:35.989Z,17.30
2023-04-18T14:00:02.508Z,17.16
2023-04-18T14:02:29.126Z,16.94
2023-04-18T14:04:56.077Z,16.80
2023-04-18T14:07:22.577Z,16.60
2023-04-18T14:09:49.136Z,16.36
2023-04-18T14:12:15.648Z,16.10
2023-04-18T14:14:42.169Z,15.90
2023-04-18T14:17:09.005Z,15.80
2023-04-18T14:19:35.440Z,15.80
2023-04-18T14:22:01.801Z,15.70
2023-04-18T14:24:28.350Z,15.60
2023-04-18T14:26:54.853Z,15.50
2023-04-18T14:29:21.320Z,15.40
2023-04-18T14:31:48.341Z,15.32
2023-04-18T14:34:14.923Z,15.22
2023-04-18T14:36:41.496Z,15.12
2023-04-18T14:39:08.264Z,15.00
2023-04-18T14:41:34.763Z,14.80
2023-04-18T14:44:01.240Z,14.70
2023-04-18T14:46:29.508Z,14.58
2023-04-18T14:48:57.139Z,14.40
2023-04-18T14:51:24.015Z,14.30
2023-04-18T14:53:50.483Z,14.20
2023-04-18T14:56:21.030Z,14.10
2023-04-18T14:58:47.760Z,14.10
2023-04-18T15:01:14.436Z,14.06
2023-04-18T15:03:41.121Z,14.00
2023-04-18T15:06:07.924Z,13.96
2023-04-18T15:08:34.416Z,13.96
2023-04-18T15:11:01.574Z,13.94
2023-04-18T15:13:28.339Z,13.90
2023-04-18T15:15:57.052Z,14.00
2023-04-18T15:18:23.596Z,14.00
2023-04-18T15:20:50.783Z,14.10
2023-04-18T15:23:17.517Z,14.20
2023-04-18T15:25:45.590Z,14.30
2023-04-18T15:28:14.319Z,14.40
2023-04-18T15:30:41.008Z,14.50
2023-04-18T15:33:08.253Z,14.70
2023-04-18T15:35:35.691Z,14.76
2023-04-18T15:38:02.212Z,14.80
2023-04-18T15:40:28.733Z,14.90
2023-04-18T15:42:56.062Z,15.00
2023-04-18T15:45:22.536Z,14.98
2023-04-18T15:47:49.107Z,14.90
2023-04-18T15:50:16.322Z,14.90
2023-04-18T15:52:43.986Z,14.90
2023-04-18T15:55:13.268Z,14.88
2023-04-18T15:57:41.877Z,14.84
2023-04-18T16:00:18.498Z,14.80
2023-04-18T16:02:46.013Z,14.80
2023-04-18T16:05:13.640Z,14.70
2023-04-18T16:07:42.156Z,14.62
2023-04-18T16:10:10.335Z,14.60
2023-04-18T16:12:38.421Z,14.56
2023-04-18T16:15:09.738Z,14.50
2023-04-18T16:17:37.702Z,14.46
2023-04-18T16:20:06.254Z,14.40
2023-04-18T16:22:32.926Z,14.40
2023-04-18T16:24:59.367Z,14.30
2023-04-18T16:27:26.093Z,14.30
2023-04-18T16:29:53.749Z,14.28
2023-04-18T16:32:21.379Z,14.20
2023-04-18T16:34:48.461Z,14.20
2023-04-18T16:37:14.991Z,14.20
2023-04-18T16:39:41.517Z,14.18
2023-04-18T16:42:07.977Z,14.10
2023-04-18T16:44:34.439Z,14.10
2023-04-18T16:47:01.521Z,14.10
2023-04-18T16:49:28.045Z,14.10
2023-04-18T16:51:54.414Z,14.00
2023-04-18T16:54:20.862Z,14.00
2023-04-18T16:56:47.397Z,13.94
2023-04-18T16:59:13.790Z,13.90
2023-04-18T17:01:40.785Z,13.90
2023-04-18T17:04:07.377Z,13.90
2023-04-18T17:06:33.970Z,13.86
2023-04-18T17:09:00.791Z,13.80
2023-04-18T17:11:27.169Z,13.80
2023-04-18T17:13:53.655Z,13.74
2023-04-18T17:16:20.632Z,13.70
2023-04-18T17:18:47.110Z,13.70
2023-04-18T17:21:13.617Z,13.70
2023-04-18T17:23:42.240Z,13.70
2023-04-18T17:26:09.869Z,13.62
2023-04-18T17:28:36.523Z,13.60
2023-04-18T17:31:03.708Z,13.60
2023-04-18T17:33:31.004Z,13.54
2023-04-18T17:35:58.016Z,13.50
2023-04-18T17:38:24.612Z,13.48
2023-04-18T17:41:01.883Z,13.40
2023-04-18T17:43:28.430Z,13.40
2023-04-18T17:45:56.806Z,13.36
2023-04-18T17:48:23.278Z,13.30
2023-04-18T17:50:49.680Z,13.30
2023-04-18T17:53:17.463Z,13.22
2023-04-18T17:55:45.106Z,13.20
2023-04-18T17:58:11.564Z,13.20
2023-04-18T18:00:38.013Z,13.10
2023-04-18T18:03:05.444Z,13.10
2023-04-18T18:05:32.083Z,13.10
2023-04-18T18:08:00.985Z,13.10
2023-04-18T18:10:28.003Z,13.00
2023-04-18T18:12:54.391Z,13.00
2023-04-18T18:15:21.012Z,13.00
2023-04-18T18:17:54.861Z,12.90
2023-04-18T18:20:21.762Z,12.90
2023-04-18T18:22:48.296Z,12.90
2023-04-18T18:25:15.204Z,12.80
2023-04-18T18:27:41.909Z,12.80
2023-04-18T18:30:08.865Z,12.80
2023-04-18T18:32:35.453Z,12.80
2023-04-18T18:35:02.631Z,12.80
2023-04-18T18:37:29.018Z,12.80
2023-04-18T18:39:56.374Z,12.70
2023-04-18T18:42:26.151Z,12.70
2023-04-18T18:44:52.587Z,12.70
2023-04-18T18:47:19.254Z,12.70
2023-04-18T18:49:45.848Z,12.68
2023-04-18T18:52:12.290Z,12.62
2023-04-18T18:54:38.741Z,12.60
2023-04-18T18:57:05.188Z,12.60
2023-04-18T18:59:31.647Z,12.60
2023-04-18T19:01:58.090Z,12.60
2023-04-18T19:04:25.001Z,12.58
2023-04-18T19:06:51.579Z,12.56
2023-04-18T19:09:17.963Z,12.58
2023-04-18T19:11:44.476Z,12.60
2023-04-18T19:14:11.104Z,12.60
2023-04-18T19:16:37.696Z,12.60
2023-04-18T19:19:04.296Z,12.60
2023-04-18T19:21:31.356Z,12.60
2023-04-18T19:23:57.757Z,12.60
2023-04-18T19:26:24.289Z,12.60
2023-04-18T19:28:50.766Z,12.60
2023-04-18T19:31:17.389Z,12.60
2023-04-18T19:33:43.846Z,12.60
2023-04-18T19:36:10.268Z,12.56
2023-04-18T19:38:36.781Z,12.54
2023-04-18T19:41:03.266Z,12.56
2023-04-18T19:43:29.648Z,12.60
2023-04-18T19:45:56.209Z,12.60
2023-04-18T19:48:22.660Z,12.58
2023-04-18T19:50:49.637Z,12.50
2023-04-18T19:53:18.718Z,12.50
2023-04-18T19:55:45.479Z,12.50
2023-04-18T19:58:11.972Z,12.50
2023-04-18T20:00:39.367Z,12.42
2023-04-18T20:03:05.926Z,12.40
2023-04-18T20:05:32.582Z,12.40
2023-04-18T20:07:58.978Z,12.40
2023-04-18T20:10:25.660Z,12.40
2023-04-18T20:12:52.033Z,12.40
2023-04-18T20:15:18.420Z,12.36
2023-04-18T20:17:45.015Z,12.30
2023-04-18T20:20:12.222Z,12.30
2023-04-18T20:22:40.265Z,12.30
2023-04-18T20:25:07.204Z,12.30
2023-04-18T20:27:33.642Z,12.20
2023-04-18T20:30:00.180Z,12.20
2023-04-18T20:32:26.866Z,12.10
2023-04-18T20:34:53.501Z,12.08
2023-04-18T20:37:20.241Z,12.00
2023-04-18T20:39:47.410Z,12.00
2023-04-18T20:42:14.508Z,11.96
2023-04-18T20:44:43.249Z,11.90
2023-04-18T20:47:09.779Z,11.80
2023-04-18T20:49:36.302Z,11.80
2023-04-18T20:52:02.873Z,11.80
2023-04-18T20:54:29.303Z,11.70
2023-04-18T20:56:56.122Z,11.70
2023-04-18T20:59:22.522Z,11.66
2023-04-18T21:01:49.010Z,11.60
2023-04-18T21:04:16.045Z,11.50
2023-04-18T21:06:42.870Z,11.50
2023-04-18T21:09:09.342Z,11.40
2023-04-18T21:11:35.842Z,11.40
2023-04-18T21:14:03.831Z,11.30
2023-04-18T21:16:30.488Z,11.30
2023-04-18T21:18:56.946Z,11.20
2023-04-18T21:21:24.674Z,11.20
2023-04-18T21:23:51.173Z,11.16
2023-04-18T21:26:17.612Z,11.10
2023-04-18T21:29:01.833Z,11.10
2023-04-18T21:31:31.561Z,11.10
2023-04-18T21:34:00.872Z,11.10
2023-04-18T21:36:28.938Z,11.10
2023-04-18T21:38:58.209Z,11.04
2023-04-18T21:41:25.831Z,11.02
2023-04-18T21:43:53.076Z,11.00
2023-04-18T21:46:19.937Z,11.00
2023-04-18T21:48:47.313Z,11.00
2023-04-18T21:51:16.404Z,11.00
2023-04-18T21:53:43.250Z,10.90
2023-04-18T21:56:09.774Z,10.90
2023-04-18T21:58:36.231Z,10.90
2023-04-18T22:01:03.249Z,10.90
2023-04-18T22:03:31.584Z,10.90
2023-04-18T22:05:58.777Z,10.90
2023-04-18T22:08:25.779Z,10.90
2023-04-18T22:10:58.813Z,10.90
2023-04-18T22:13:32.685Z,10.88
2023-04-18T22:16:03.995Z,10.84
2023-04-18T22:18:33.900Z,10.80
2023-04-18T22:21:03.224Z,10.80
2023-04-18T22:23:30.925Z,10.80
2023-04-18T22:25:57.868Z,10.80
2023-04-18T22:28:24.460Z,10.80
2023-04-18T22:30:51.412Z,10.70
2023-04-18T22:33:18.198Z,10.70
2023-04-18T22:35:47.706Z,10.70
2023-04-18T22:38:14.342Z,10.70
2023-04-18T22:40:40.779Z,10.70
2023-04-18T22:43:07.246Z,10.70
2023-04-18T22:45:34.617Z,10.70
2023-04-18T22:48:01.341Z,10.70
2023-04-18T22:50:27.759Z,10.62
2023-04-18T22:52:54.263Z,10.60
2023-04-18T22:55:20.700Z,10.60
2023-04-18T22:57:47.146Z,10.60
2023-04-18T23:00:14.653Z,10.60
2023-04-18T23:02:41.658Z,10.60
2023-04-18T23:05:10.687Z,10.60
2023-04-18T23:07:37.104Z,10.50
2023-04-18T23:10:06.635Z,10.50
2023-04-18T23:12:33.448Z,10.50
2023-04-18T23:14:59.892Z,10.44
2023-04-18T23:17:26.292Z,10.40
2023-04-18T23:19:52.767Z,10.40
2023-04-18T23:22:19.188Z,10.40
2023-04-18T23:24:45.740Z,10.40
2023-04-18T23:27:12.157Z,10.40
2023-04-18T23:29:39.175Z,10.32
2023-04-18T23:32:06.583Z,10.30
2023-04-18T23:34:32.973Z,10.30
2023-04-18T23:37:00.579Z,10.30
2023-04-18T23:39:26.989Z,10.30
2023-04-18T23:41:53.605Z,10.30
2023-04-18T23:44:20.154Z,10.30
2023-04-18T23:46:47.730Z,10.30
2023-04-18T23:49:15.172Z,10.30
2023-04-18T23:51:42.146Z,10.30
2023-04-18T23:54:08.606Z,10.30
2023-04-18T23:56:35.207Z,10.30
2023-04-18T23:59:01.632Z,10.20
